createdAt,value
2022-12-09T00:00:26.847Z,-0.37
2022-12-09T00:02:53.638Z,-0.49
2022-12-09T00:05:20.627Z,-0.57
2022-12-09T00:07:47.591Z,-0.65
2022-12-09T00:10:14.699Z,-0.71
2022-12-09T00:12:41.595Z,-0.77
2022-12-09T00:15:08.873Z,-0.78
2022-12-09T00:17:35.734Z,-0.74
2022-12-09T00:20:02.571Z,-0.76
2022-12-09T00:22:29.360Z,-0.83
2022-12-09T00:24:56.060Z,-0.84
2022-12-09T00:27:22.779Z,-0.83
2022-12-09T00:29:49.392Z,-0.77
2022-12-09T00:32:16.214Z,-0.66
2022-12-09T00:34:43.042Z,-0.57
2022-12-09T00:37:09.688Z,-0.52
2022-12-09T00:39:36.513Z,-0.50
2022-12-09T00:42:04.024Z,-0.47
2022-12-09T00:44:30.702Z,-0.45
2022-12-09T00:46:57.729Z,-0.45
2022-12-09T00:49:24.807Z,-0.48
2022-12-09T00:51:54.094Z,-0.54
2022-12-09T00:54:22.115Z,-0.57
2022-12-09T00:56:48.781Z,-0.57
2022-12-09T00:59:15.380Z,-0.55
2022-12-09T01:01:42.154Z,-0.54
2022-12-09T01:04:09.156Z,-0.52
2022-12-09T01:06:36.215Z,-0.50
2022-12-09T01:09:03.468Z,-0.49
2022-12-09T01:11:30.783Z,-0.48
2022-12-09T01:13:58.887Z,-0.46
2022-12-09T01:16:26.707Z,-0.45
2022-12-09T01:18:54.226Z,-0.46
2022-12-09T01:21:21.274Z,-0.48
2022-12-09T01:23:48.052Z,-0.46
2022-12-09T01:26:14.899Z,-0.43
2022-12-09T01:28:41.959Z,-0.41
2022-12-09T01:31:13.933Z,-0.43
2022-12-09T01:33:41.095Z,-0.42
2022-12-09T01:36:10.072Z,-0.42
2022-12-09T01:38:37.015Z,-0.42
2022-12-09T01:41:05.540Z,-0.45
2022-12-09T01:43:32.996Z,-0.45
2022-12-09T01:45:59.868Z,-0.45
2022-12-09T01:48:28.431Z,-0.48
2022-12-09T01:50:56.791Z,-0.53
2022-12-09T01:53:25.201Z,-0.58
2022-12-09T01:55:57.500Z,-0.59
2022-12-09T01:58:24.638Z,-0.57
2022-12-09T02:00:51.630Z,-0.56
2022-12-09T02:03:21.138Z,-0.54
2022-12-09T02:05:48.220Z,-0.54
2022-12-09T02:08:16.329Z,-0.58
2022-12-09T02:10:52.889Z,-0.65
2022-12-09T02:13:29.285Z,-0.76
2022-12-09T02:15:58.010Z,-0.83
2022-12-09T02:18:30.937Z,-0.86
2022-12-09T02:21:04.028Z,-0.86
2022-12-09T02:23:43.126Z,-0.86
2022-12-09T02:26:27.542Z,-0.83
2022-12-09T02:29:00.491Z,-0.81
2022-12-09T02:31:44.085Z,-0.78
2022-12-09T02:34:15.335Z,-0.76
2022-12-09T02:37:11.991Z,-0.75
2022-12-09T02:39:41.623Z,-0.71
2022-12-09T02:42:08.983Z,-0.67
2022-12-09T02:44:36.543Z,-0.59
2022-12-09T02:47:04.676Z,-0.54
2022-12-09T02:49:31.929Z,-0.49
2022-12-09T02:51:58.937Z,-0.43
2022-12-09T02:54:26.160Z,-0.37
2022-12-09T02:56:57.153Z,-0.32
2022-12-09T02:59:24.116Z,-0.28
2022-12-09T03:02:08.268Z,-0.25
2022-12-09T03:04:35.206Z,-0.24
2022-12-09T03:07:18.299Z,-0.22
2022-12-09T03:09:45.369Z,-0.22
2022-12-09T03:12:12.280Z,-0.24
2022-12-09T03:14:41.894Z,-0.28
2022-12-09T03:17:20.311Z,-0.35
2022-12-09T03:19:49.031Z,-0.38
2022-12-09T03:22:17.469Z,-0.39
2022-12-09T03:25:21.556Z,-0.43
2022-12-09T03:28:00.449Z,-0.45
2022-12-09T03:30:27.378Z,-0.42
2022-12-09T03:32:54.768Z,-0.39
2022-12-09T03:35:26.772Z,-0.36
2022-12-09T03:37:53.814Z,-0.40
2022-12-09T03:40:25.483Z,-0.44
2022-12-09T03:43:13.487Z,-0.41
2022-12-09T03:45:40.232Z,-0.36
2022-12-09T03:48:07.520Z,-0.33
2022-12-09T03:50:41.641Z,-0.33
2022-12-09T03:53:13.056Z,-0.38
2022-12-09T03:55:54.934Z,-0.42
2022-12-09T03:58:21.974Z,-0.41
2022-12-09T04:00:49.158Z,-0.39
2022-12-09T04:04:03.783Z,-0.34
2022-12-09T04:06:30.627Z,-0.37
2022-12-09T04:09:02.194Z,-0.37
2022-12-09T04:11:30.890Z,-0.36
2022-12-09T04:13:57.784Z,-0.36
2022-12-09T04:16:24.515Z,-0.36
2022-12-09T04:18:51.739Z,-0.38
2022-12-09T04:21:18.500Z,-0.37
2022-12-09T04:23:45.191Z,-0.36
2022-12-09T04:26:16.964Z,-0.36
2022-12-09T04:28:44.149Z,-0.34
2022-12-09T04:31:12.782Z,-0.34
2022-12-09T04:33:39.954Z,-0.35
2022-12-09T04:36:08.180Z,-0.37
2022-12-09T04:38:34.859Z,-0.37
2022-12-09T04:41:02.009Z,-0.37
2022-12-09T04:43:29.020Z,-0.39
2022-12-09T04:46:00.668Z,-0.42
2022-12-09T04:48:27.988Z,-0.47
2022-12-09T04:50:56.165Z,-0.51
2022-12-09T04:53:23.300Z,-0.57
2022-12-09T04:55:50.228Z,-0.68
2022-12-09T04:58:16.919Z,-0.73
2022-12-09T05:00:43.799Z,-0.74
2022-12-09T05:03:10.713Z,-0.80
2022-12-09T05:05:40.248Z,-0.84
2022-12-09T05:08:07.672Z,-0.82
2022-12-09T05:10:34.819Z,-0.81
2022-12-09T05:13:02.120Z,-0.87
2022-12-09T05:15:29.687Z,-0.95
2022-12-09T05:17:58.164Z,-1.03
2022-12-09T05:20:29.367Z,-1.10
2022-12-09T05:22:56.785Z,-1.10
2022-12-09T05:25:23.979Z,-1.07
2022-12-09T05:27:50.906Z,-1.09
2022-12-09T05:30:18.094Z,-1.04
2022-12-09T05:32:44.971Z,-1.02
2022-12-09T05:35:12.115Z,-1.09
2022-12-09T05:37:39.085Z,-1.11
2022-12-09T05:40:06.916Z,-1.10
2022-12-09T05:42:40.883Z,-1.10
2022-12-09T05:45:08.992Z,-1.08
2022-12-09T05:47:36.351Z,-1.06
2022-12-09T05:50:08.221Z,-1.08
2022-12-09T05:52:36.484Z,-1.05
2022-12-09T05:55:07.792Z,-1.09
2022-12-09T05:57:35.086Z,-1.15
2022-12-09T06:00:02.900Z,-1.11
2022-12-09T06:02:39.125Z,-1.02
2022-12-09T06:05:06.822Z,-0.95
2022-12-09T06:07:34.816Z,-0.85
2022-12-09T06:10:02.238Z,-0.76
2022-12-09T06:12:29.266Z,-0.73
2022-12-09T06:14:56.115Z,-0.72
2022-12-09T06:17:22.998Z,-0.75
2022-12-09T06:19:49.937Z,-0.79
2022-12-09T06:22:16.840Z,-0.79
2022-12-09T06:24:43.860Z,-0.76
2022-12-09T06:27:10.613Z,-0.72
2022-12-09T06:29:37.852Z,-0.72
2022-12-09T06:32:04.842Z,-0.74
2022-12-09T06:34:32.049Z,-0.72
2022-12-09T06:36:59.444Z,-0.68
2022-12-09T06:39:26.243Z,-0.63
2022-12-09T06:41:53.323Z,-0.63
2022-12-09T06:44:23.858Z,-0.63
2022-12-09T06:46:51.260Z,-0.65
2022-12-09T06:49:18.379Z,-0.69
2022-12-09T06:51:45.540Z,-0.73
2022-12-09T06:54:13.441Z,-0.78
2022-12-09T06:56:40.446Z,-0.88
2022-12-09T06:59:08.619Z,-0.97
2022-12-09T07:01:35.837Z,-0.95
2022-12-09T07:04:03.501Z,-0.93
2022-12-09T07:06:33.752Z,-0.90
2022-12-09T07:09:03.157Z,-0.85
2022-12-09T07:11:30.216Z,-0.80
2022-12-09T07:13:57.489Z,-0.80
2022-12-09T07:16:24.882Z,-0.82
2022-12-09T07:18:52.019Z,-0.84
2022-12-09T07:21:19.607Z,-0.90
2022-12-09T07:23:46.627Z,-0.97
2022-12-09T07:26:13.728Z,-0.99
2022-12-09T07:28:42.655Z,-0.95
2022-12-09T07:31:28.677Z,-0.93
2022-12-09T07:33:56.689Z,-0.91
2022-12-09T07:36:25.855Z,-0.83
2022-12-09T07:39:07.078Z,-0.76
2022-12-09T07:41:33.982Z,-0.66
2022-12-09T07:44:00.715Z,-0.58
2022-12-09T07:46:28.556Z,-0.54
2022-12-09T07:48:56.229Z,-0.54
2022-12-09T07:51:24.456Z,-0.60
2022-12-09T07:53:51.719Z,-0.65
2022-12-09T07:56:18.724Z,-0.61
2022-12-09T07:58:47.797Z,-0.55
2022-12-09T08:01:16.725Z,-0.50
2022-12-09T08:03:44.372Z,-0.42
2022-12-09T08:06:14.047Z,-0.36
2022-12-09T08:08:41.259Z,-0.30
2022-12-09T08:11:10.224Z,-0.23
2022-12-09T08:13:37.870Z,-0.17
2022-12-09T08:16:05.323Z,-0.11
2022-12-09T08:18:33.341Z,-0.08
2022-12-09T08:21:03.367Z,-0.08
2022-12-09T08:23:30.309Z,-0.05
2022-12-09T08:25:57.338Z,0.01
2022-12-09T08:28:24.661Z,0.07
2022-12-09T08:30:51.919Z,0.13
2022-12-09T08:33:18.959Z,0.18
2022-12-09T08:35:45.747Z,0.26
2022-12-09T08:38:12.546Z,0.29
2022-12-09T08:40:39.559Z,0.33
2022-12-09T08:43:08.915Z,0.40
2022-12-09T08:45:40.077Z,0.46
2022-12-09T08:48:07.844Z,0.52
2022-12-09T08:50:35.444Z,0.58
2022-12-09T08:53:02.533Z,0.64
2022-12-09T08:55:29.354Z,0.69
2022-12-09T08:57:57.156Z,0.71
2022-12-09T09:00:24.235Z,0.73
2022-12-09T09:02:51.383Z,0.70
2022-12-09T09:05:18.866Z,0.69
2022-12-09T09:07:45.885Z,0.75
2022-12-09T09:10:13.349Z,0.85
2022-12-09T09:12:43.532Z,0.95
2022-12-09T09:15:11.417Z,1.00
2022-12-09T09:17:38.593Z,0.99
2022-12-09T09:20:06.884Z,1.02
2022-12-09T09:22:34.698Z,1.01
2022-12-09T09:25:01.657Z,1.04
2022-12-09T09:27:28.519Z,1.04
2022-12-09T09:29:55.605Z,1.02
2022-12-09T09:32:22.478Z,1.03
2022-12-09T09:34:50.751Z,1.03
2022-12-09T09:37:17.743Z,1.06
2022-12-09T09:39:44.774Z,1.08
2022-12-09T09:42:22.815Z,1.12
2022-12-09T09:44:51.468Z,1.18
2022-12-09T09:47:23.211Z,1.22
2022-12-09T09:50:12.230Z,1.24
2022-12-09T09:52:39.483Z,1.25
2022-12-09T09:55:16.938Z,1.27
2022-12-09T09:57:48.039Z,1.25
2022-12-09T10:00:27.879Z,1.24
2022-12-09T10:03:09.542Z,1.24
2022-12-09T10:05:54.203Z,1.23
2022-12-09T10:08:26.425Z,1.17
2022-12-09T10:11:11.164Z,1.10
2022-12-09T10:13:47.785Z,1.01
2022-12-09T10:16:18.057Z,0.97
2022-12-09T10:18:49.900Z,0.95
2022-12-09T10:21:19.439Z,0.93
2022-12-09T10:23:46.934Z,0.91
2022-12-09T10:26:27.478Z,0.92
2022-12-09T10:29:11.700Z,0.92
2022-12-09T10:31:39.142Z,0.98
2022-12-09T10:34:06.552Z,1.00
2022-12-09T10:36:36.033Z,1.02
2022-12-09T10:39:05.197Z,1.02
2022-12-09T10:42:06.561Z,1.08
2022-12-09T10:44:34.099Z,1.15
2022-12-09T10:47:03.185Z,1.18
2022-12-09T10:49:30.472Z,1.20
2022-12-09T10:51:57.463Z,1.24
2022-12-09T10:54:50.970Z,1.32
2022-12-09T10:57:17.776Z,1.38
2022-12-09T11:00:03.959Z,1.35
2022-12-09T11:02:31.916Z,1.29
2022-12-09T11:05:27.537Z,1.30
2022-12-09T11:07:56.349Z,1.35
2022-12-09T11:10:28.027Z,1.37
2022-12-09T11:13:01.001Z,1.38
2022-12-09T11:15:50.433Z,1.40
2022-12-09T11:18:22.161Z,1.41
2022-12-09T11:20:57.272Z,1.44
2022-12-09T11:23:24.798Z,1.48
2022-12-09T11:26:00.246Z,1.55
2022-12-09T11:28:38.103Z,1.62
2022-12-09T11:33:55.706Z,1.74
2022-12-09T11:36:38.599Z,1.78
2022-12-09T11:39:15.318Z,1.66
2022-12-09T11:42:05.090Z,1.48
2022-12-09T11:44:33.033Z,1.33
2022-12-09T11:47:07.952Z,1.25
2022-12-09T11:49:37.194Z,1.20
2022-12-09T11:52:19.311Z,1.18
2022-12-09T11:54:54.619Z,1.15
2022-12-09T11:57:30.897Z,1.13
2022-12-09T12:00:00.451Z,1.10
2022-12-09T12:02:42.810Z,1.11
2022-12-09T12:05:21.248Z,1.16
2022-12-09T12:08:08.800Z,1.20
2022-12-09T12:10:39.171Z,1.24
2022-12-09T12:13:10.430Z,1.23
2022-12-09T12:15:42.293Z,1.24
2022-12-09T12:18:14.123Z,1.26
2022-12-09T12:20:49.407Z,1.24
2022-12-09T12:23:26.310Z,1.22
2022-12-09T12:26:04.758Z,1.23
2022-12-09T12:29:13.531Z,1.27
2022-12-09T12:32:05.526Z,1.30
2022-12-09T12:34:39.874Z,1.22
2022-12-09T12:37:29.986Z,1.17
2022-12-09T12:40:09.679Z,1.18
2022-12-09T12:43:29.600Z,1.18
2022-12-09T12:46:17.220Z,1.16
2022-12-09T12:48:46.977Z,1.12
2022-12-09T12:51:20.078Z,1.14
2022-12-09T12:54:02.775Z,1.18
2022-12-09T12:56:41.728Z,1.21
2022-12-09T12:59:40.683Z,1.26
2022-12-09T13:02:23.497Z,1.33
2022-12-09T13:05:14.760Z,1.38
2022-12-09T13:07:52.391Z,1.44
2022-12-09T13:10:30.161Z,1.53
2022-12-09T13:12:57.150Z,1.64
2022-12-09T13:15:37.645Z,1.73
2022-12-09T13:18:24.276Z,1.80
2022-12-09T13:20:52.629Z,1.85
2022-12-09T13:23:42.682Z,1.90
2022-12-09T13:26:28.604Z,1.97
2022-12-09T13:29:01.842Z,1.96
2022-12-09T13:31:30.003Z,1.87
2022-12-09T13:34:41.939Z,1.81
2022-12-09T13:37:55.079Z,1.74
2022-12-09T13:40:21.746Z,1.69
2022-12-09T13:42:58.034Z,1.62
2022-12-09T13:45:43.219Z,1.58
2022-12-09T13:48:16.806Z,1.55
2022-12-09T13:50:49.994Z,1.53
2022-12-09T13:53:19.971Z,1.51
2022-12-09T13:55:59.738Z,1.51
2022-12-09T13:58:30.752Z,1.51
2022-12-09T14:01:12.807Z,1.47
2022-12-09T14:04:13.765Z,1.38
2022-12-09T14:06:50.060Z,1.19
2022-12-09T14:09:22.704Z,1.09
2022-12-09T14:11:53.390Z,1.03
2022-12-09T14:14:23.049Z,1.00
2022-12-09T14:16:53.614Z,1.00
2022-12-09T14:19:26.962Z,1.00
2022-12-09T14:22:19.737Z,1.03
2022-12-09T14:24:50.233Z,1.07
2022-12-09T14:27:18.311Z,1.11
2022-12-09T14:29:55.841Z,1.15
2022-12-09T17:24:51.744Z,0.51
2022-12-09T17:27:19.504Z,0.51
2022-12-09T17:29:46.288Z,0.58
2022-12-09T17:32:13.424Z,0.65
2022-12-09T17:34:40.212Z,0.71
2022-12-09T17:37:06.881Z,0.78
2022-12-09T17:39:33.654Z,0.85
2022-12-09T17:42:00.402Z,0.92
2022-12-09T17:44:27.025Z,0.98
2022-12-09T17:46:55.234Z,1.03
2022-12-09T17:49:21.978Z,1.07
2022-12-09T17:51:48.676Z,1.10
2022-12-09T17:54:15.351Z,1.11
2022-12-09T17:56:41.998Z,1.12
2022-12-09T17:59:13.205Z,1.13
2022-12-09T18:01:41.214Z,1.13
2022-12-09T18:04:10.161Z,1.10
2022-12-09T18:06:38.946Z,1.05
2022-12-09T18:09:06.680Z,1.02
2022-12-09T18:11:33.447Z,1.01
2022-12-09T18:14:00.141Z,1.02
2022-12-09T18:16:26.951Z,1.02
2022-12-09T18:18:53.656Z,1.02
2022-12-09T18:21:20.310Z,1.00
2022-12-09T18:23:48.272Z,0.95
2022-12-09T18:26:16.705Z,0.91
2022-12-09T18:28:43.382Z,0.90
2022-12-09T18:31:12.123Z,0.91
2022-12-09T18:33:38.929Z,0.96
2022-12-09T18:36:10.870Z,1.03
2022-12-09T18:38:38.247Z,1.10
2022-12-09T18:41:05.067Z,1.17
2022-12-09T18:43:33.983Z,1.24
2022-12-09T18:46:08.797Z,1.31
2022-12-09T18:48:35.576Z,1.38
2022-12-09T18:51:02.396Z,1.45
2022-12-09T18:53:29.218Z,1.50
2022-12-09T18:55:55.853Z,1.57
2022-12-09T18:58:42.552Z,1.62
2022-12-09T19:01:26.399Z,1.68
2022-12-09T19:03:54.293Z,1.72
2022-12-09T19:06:23.839Z,1.71
2022-12-09T19:08:54.589Z,1.64
2022-12-09T19:11:26.583Z,1.58
2022-12-09T19:13:53.321Z,1.54
2022-12-09T19:16:20.347Z,1.54
2022-12-09T19:18:47.148Z,1.55
2022-12-09T19:21:15.898Z,1.55
2022-12-09T19:23:43.259Z,1.54
2022-12-09T19:26:23.543Z,1.53
2022-12-09T19:28:58.098Z,1.57
2022-12-09T19:31:26.909Z,1.59
2022-12-09T19:33:57.963Z,1.63
2022-12-09T19:36:25.279Z,1.67
2022-12-09T19:38:52.050Z,1.73
2022-12-09T19:41:18.927Z,1.75
2022-12-09T19:43:45.933Z,1.72
2022-12-09T19:46:13.381Z,1.68
2022-12-09T19:48:41.880Z,1.67
2022-12-09T19:51:09.667Z,1.68
2022-12-09T19:53:36.561Z,1.66
2022-12-09T19:56:04.282Z,1.63
2022-12-09T19:58:31.272Z,1.63
2022-12-09T20:00:58.345Z,1.61
2022-12-09T20:03:25.435Z,1.53
2022-12-09T20:05:53.697Z,1.46
2022-12-09T20:08:20.479Z,1.42
2022-12-09T20:10:47.454Z,1.42
2022-12-09T20:13:15.786Z,1.43
2022-12-09T20:15:42.434Z,1.46
2022-12-09T20:18:09.730Z,1.47
2022-12-09T20:20:37.014Z,1.49
2022-12-09T20:23:03.874Z,1.53
2022-12-09T20:25:33.046Z,1.56
2022-12-09T20:28:00.925Z,1.53
2022-12-09T20:30:28.339Z,1.45
2022-12-09T20:32:55.210Z,1.43
2022-12-09T20:35:22.347Z,1.42
2022-12-09T20:37:48.960Z,1.41
2022-12-09T20:40:15.711Z,1.41
2022-12-09T20:42:42.400Z,1.40
2022-12-09T20:45:09.728Z,1.38
2022-12-09T20:47:36.466Z,1.35
2022-12-09T20:50:03.737Z,1.30
2022-12-09T20:52:30.401Z,1.31
2022-12-09T20:54:57.267Z,1.34
2022-12-09T20:57:23.919Z,1.38
2022-12-09T22:28:19.351Z,-0.21
2022-12-09T22:30:46.124Z,-0.20
2022-12-09T22:33:12.810Z,-0.11
2022-12-09T22:35:39.413Z,-0.05
2022-12-09T22:38:12.815Z,0.04
2022-12-09T22:40:43.533Z,0.14
2022-12-09T22:43:10.281Z,0.27
2022-12-09T22:45:36.900Z,0.38
2022-12-09T22:48:03.789Z,0.47
2022-12-09T22:50:30.426Z,0.55
2022-12-09T22:52:57.108Z,0.59
2022-12-09T22:55:23.768Z,0.67
2022-12-09T22:57:51.841Z,0.72
2022-12-09T23:00:18.774Z,0.78
2022-12-09T23:02:45.545Z,0.86
2022-12-09T23:05:12.348Z,0.92
2022-12-09T23:07:38.999Z,0.98
2022-12-09T23:10:06.316Z,1.02
2022-12-09T23:12:33.139Z,1.06
2022-12-09T23:14:59.762Z,1.11
2022-12-09T23:17:26.356Z,1.13
2022-12-09T23:19:53.049Z,1.18
2022-12-09T23:22:19.689Z,1.25
2022-12-09T23:24:47.656Z,1.28
2022-12-09T23:27:14.317Z,1.28
2022-12-09T23:29:40.999Z,1.27
2022-12-09T23:32:07.634Z,1.26
2022-12-09T23:34:34.277Z,1.29
2022-12-09T23:37:00.908Z,1.33
2022-12-09T23:39:27.609Z,1.38
2022-12-09T23:41:54.388Z,1.45
2022-12-09T23:44:21.069Z,1.51
2022-12-09T23:46:48.046Z,1.51
2022-12-09T23:49:14.891Z,1.52
2022-12-09T23:51:43.703Z,1.51
2022-12-09T23:54:11.076Z,1.49
2022-12-09T23:56:39.036Z,1.47
2022-12-09T23:59:08.069Z,1.47
